Edina, MN (55435)

7:21 PM CDT on August 28, 2015 (GMT -0500)
Cornelia | | Change Station
CLOSE
Current Station
Personal Weather Station
Location: Edina, MN
Elevation: 860 ft
Nearby Weather Stations

Elev 860 ft 44.87 °N, 93.34 °W | Updated 26 seconds ago

Partly Cloudy
Partly Cloudy
70.0 °F
Feels Like 70.0 °F
N
2.9
Wind Variable Wind from SSE
Gusts 4.9 mph

Today
High -- | Low -- °F
--% Chance of Precip.
Yesterday
High -- | Low -- °F
Precip. -- in
6:30 AM 7:57 PM
Waxing Gibbous, 99% visible
Pressure 29.99 in
Visibility 10.0 miles
Clouds Few 2200 ft
Scattered Clouds 3100 ft
Mostly Cloudy 20000 ft
Dew Point 61 °F
Humidity 73%
Rainfall 0.00 in
Snow Depth Not available.
UV 0.0 out of 12
Pollen 1.00 out of 12
Air Quality Not available.
Flu Activity Not available.
METAR KMSP 282353Z 15010KT 10SM FEW022 SCT031 BKN200 20/14 A2999 RMK AO2 SLP155 T02000144 10244 20200 55002
Pressure 29.99 in
Visibility 10.0 miles
Clouds Few 2200 ft
Scattered Clouds 3100 ft
Mostly Cloudy 20000 ft
Dew Point 61 °F
Humidity 73%
Rainfall 0.00 in
Snow Depth Not available.
UV 0.0 out of 12
Pollen 1.00 out of 12
Air Quality Not available.
Flu Activity Not available.
METAR KMSP 282353Z 15010KT 10SM FEW022 SCT031 BKN200 20/14 A2999 RMK AO2 SLP155 T02000144 10244 20200 55002

10-Day Weather Forecast

×

Almanac

Astronomy

Aug. 28, 2015 Rise Set
Actual Time
Civil Twilight
Nautical Twilight
Astronomical Twilight
Moon
Length of Visible Light
Length of Day
Tomorrow will be .
, % of the Moon is Illuminated

Today's Extremes

State Highs State Lows

Community

WunderPhotos

Upload Photos

1,850,545 photos uploaded!

WunderBlogs® & News

Nearby

Air Quality

  Air Quality AQ Index Pollutant
Not available.

Snow Depth

Station Depth Elevation

Earthquake Activity

City Distance Mag. Time & Date
Minimum magnitude displayed is 2.5.

Coastal Water Temperatures

Place Temperature

Stations

Nearby Weather Stations

Station Location Temp. Windchill Dew Point Humidity Wind Precip. Elev Updated Type